KEVW/EVW METAR and TAF weather

Enter ICAO airport designator
Station Type Date Time Source
KEVW METAR 2021/09/25 01:53 UTC NOAA

KEVW 250153Z AUTO 27011KT 10SM CLR 16/M04 A3029 RMK AO2 SLP201 T01561039


Station Type Date Time Source
KEVW Decoded METAR 2021/09/25 01:53 UTC NOAA

EVANSTON-UINTA COUNTY FIELD, WY, United States (KEVW) 41-16N 111-02W 2177M
Sep 24, 2021 - 09:53 PM EDT / 2021.09.25 0153 UTC
Wind: from the W (270 degrees) at 13 MPH (11 KT):0
Visibility: 10 mile(s):0
Sky conditions: clear
Temperature: 60.1 F (15.6 C)
Dew Point: 25.0 F (-3.9 C)
Relative Humidity: 25%
Pressure (altimeter): 30.29 in. Hg (1025 hPa)
ob: KEVW 250153Z AUTO 27011KT 10SM CLR 16/M04 A3029 RMK AO2 SLP201 T01561039
cycle: 2

Station Type Date Time Source
KEVW TAF 2021/09/24 18:42 UTC NOAA

TAF KEVW 241736Z 2418/2518 28010G16KT P6SM SKC
FM250100 28006KT P6SM SKC

Example: see airport list